JUST35 YSWG-YMES
Flight info
| Callsign | JUST35 |
|---|---|
| Flight time | 1h 13m |
| Altitude | 3000 |
| Route | DCT AY GIPPS TODIV OMBOR DCT |
| Aircraft | H60/M-SDFGRY/LB1 |
Departure
| Time | 2026-05-01 11:23 |
|---|---|
| Airport | Wagga Wagga Airport (YSWG) |
Arrival
| Time | 2026-05-01 12:36 |
|---|---|
| Airport | RAAF Base East Sale (YMES) |
| Time | Latitude | Longitude | Altitude | Speed | Heading |
|---|---|---|---|---|---|
| 2026-05-01 11:15 | -35.15865 | 147.47054 | 719 ft | 0 kts | 186° |
| 2026-05-01 11:22 | -35.15923 | 147.47068 | 756 ft | 24 kts | 165° |
| 2026-05-01 11:22 | -35.16099 | 147.47103 | 744 ft | 24 kts | 165° |
| 2026-05-01 11:22 | -35.16204 | 147.47101 | 745 ft | 18 kts | 171° |
| 2026-05-01 11:22 | -35.16355 | 147.46824 | 875 ft | 78 kts | 247° |
| 2026-05-01 11:23 | -35.16737 | 147.46090 | 1184 ft | 116 kts | 220° |
| 2026-05-01 11:23 | -35.17509 | 147.46272 | 1466 ft | 117 kts | 185° |
| 2026-05-01 11:23 | -35.18334 | 147.45838 | 1768 ft | 147 kts | 202° |
| 2026-05-01 11:23 | -35.19331 | 147.45289 | 2029 ft | 164 kts | 208° |
| 2026-05-01 11:24 | -35.20375 | 147.44679 | 2406 ft | 170 kts | 208° |
| 2026-05-01 11:24 | -35.21506 | 147.44127 | 2578 ft | 175 kts | 204° |
| 2026-05-01 11:24 | -35.23682 | 147.42916 | 2579 ft | 174 kts | 208° |
| 2026-05-01 11:25 | -35.24803 | 147.42357 | 2668 ft | 174 kts | 206° |
| 2026-05-01 11:25 | -35.27037 | 147.41258 | 2734 ft | 175 kts | 206° |
| 2026-05-01 11:25 | -35.28161 | 147.40704 | 2742 ft | 174 kts | 206° |
| 2026-05-01 11:26 | -35.29285 | 147.40150 | 2726 ft | 174 kts | 206° |
| 2026-05-01 11:26 | -35.31532 | 147.39064 | 2701 ft | 175 kts | 205° |
| 2026-05-01 11:26 | -35.32665 | 147.38527 | 2703 ft | 175 kts | 205° |
| 2026-05-01 11:27 | -35.33796 | 147.37994 | 2703 ft | 174 kts | 205° |
| 2026-05-01 11:27 | -35.34913 | 147.37467 | 2703 ft | 174 kts | 205° |
| 2026-05-01 11:27 | -35.36041 | 147.36936 | 2702 ft | 174 kts | 205° |
| 2026-05-01 11:27 | -35.37170 | 147.36403 | 2703 ft | 173 kts | 205° |
| 2026-05-01 11:28 | -35.38298 | 147.35868 | 2702 ft | 174 kts | 205° |
| 2026-05-01 11:28 | -35.39431 | 147.35331 | 2699 ft | 175 kts | 205° |
| 2026-05-01 11:28 | -35.40565 | 147.34792 | 2701 ft | 175 kts | 205° |
| 2026-05-01 11:29 | -35.42827 | 147.33719 | 2699 ft | 175 kts | 205° |
| 2026-05-01 11:29 | -35.43958 | 147.33182 | 2700 ft | 175 kts | 205° |
| 2026-05-01 11:29 | -35.46206 | 147.32118 | 2701 ft | 175 kts | 205° |
| 2026-05-01 11:30 | -35.47336 | 147.31582 | 2701 ft | 174 kts | 205° |
| 2026-05-01 11:30 | -35.48467 | 147.31045 | 2701 ft | 174 kts | 205° |
| 2026-05-01 11:30 | -35.49598 | 147.30508 | 2700 ft | 175 kts | 205° |
| 2026-05-01 11:30 | -35.50730 | 147.29970 | 2700 ft | 175 kts | 205° |
| 2026-05-01 11:31 | -35.51860 | 147.29433 | 2702 ft | 175 kts | 205° |
| 2026-05-01 11:31 | -35.52996 | 147.28894 | 2702 ft | 175 kts | 206° |
| 2026-05-01 11:31 | -35.54089 | 147.28307 | 2702 ft | 174 kts | 208° |
| 2026-05-01 11:31 | -35.55190 | 147.27689 | 2701 ft | 174 kts | 208° |
| 2026-05-01 11:32 | -35.56289 | 147.27071 | 2701 ft | 174 kts | 208° |
| 2026-05-01 11:32 | -35.57389 | 147.26452 | 2701 ft | 173 kts | 208° |
| 2026-05-01 11:32 | -35.58487 | 147.25836 | 2700 ft | 174 kts | 208° |
| 2026-05-01 11:32 | -35.59585 | 147.25217 | 2700 ft | 174 kts | 208° |
| 2026-05-01 11:33 | -35.60684 | 147.24597 | 2701 ft | 174 kts | 208° |
| 2026-05-01 11:33 | -35.61783 | 147.23979 | 2701 ft | 174 kts | 208° |
| 2026-05-01 11:33 | -35.62880 | 147.23360 | 2701 ft | 174 kts | 208° |
| 2026-05-01 11:33 | -35.63980 | 147.22740 | 2701 ft | 174 kts | 208° |
| 2026-05-01 11:34 | -35.65065 | 147.22128 | 2701 ft | 174 kts | 208° |
| 2026-05-01 11:34 | -35.66163 | 147.21510 | 2700 ft | 173 kts | 208° |
| 2026-05-01 11:34 | -35.67253 | 147.20896 | 2702 ft | 173 kts | 208° |
| 2026-05-01 11:34 | -35.68353 | 147.20278 | 2702 ft | 174 kts | 208° |
| 2026-05-01 11:35 | -35.69450 | 147.19661 | 2701 ft | 174 kts | 208° |
| 2026-05-01 11:35 | -35.70546 | 147.19043 | 2700 ft | 174 kts | 208° |
| 2026-05-01 11:35 | -35.71648 | 147.18422 | 2702 ft | 174 kts | 208° |
| 2026-05-01 11:35 | -35.72746 | 147.17802 | 2702 ft | 174 kts | 208° |
| 2026-05-01 11:36 | -35.73843 | 147.17182 | 2702 ft | 174 kts | 208° |
| 2026-05-01 11:36 | -35.74927 | 147.16570 | 2701 ft | 174 kts | 208° |
| 2026-05-01 11:36 | -35.76025 | 147.15949 | 2701 ft | 174 kts | 208° |
| 2026-05-01 11:36 | -35.77123 | 147.15330 | 2701 ft | 174 kts | 208° |
| 2026-05-01 11:37 | -35.78219 | 147.14711 | 2702 ft | 172 kts | 208° |
| 2026-05-01 11:37 | -35.79312 | 147.14096 | 2701 ft | 173 kts | 208° |
| 2026-05-01 11:37 | -35.80406 | 147.13478 | 2700 ft | 174 kts | 208° |
| 2026-05-01 11:37 | -35.81504 | 147.12857 | 2700 ft | 173 kts | 208° |
| 2026-05-01 11:38 | -35.82599 | 147.12241 | 2700 ft | 173 kts | 208° |
| 2026-05-01 11:38 | -35.83681 | 147.11629 | 2702 ft | 174 kts | 208° |
| 2026-05-01 11:38 | -35.84781 | 147.11006 | 2703 ft | 174 kts | 208° |
| 2026-05-01 11:38 | -35.85883 | 147.10385 | 2703 ft | 174 kts | 208° |
| 2026-05-01 11:39 | -35.86982 | 147.09765 | 2700 ft | 174 kts | 209° |
| 2026-05-01 11:39 | -35.88065 | 147.09109 | 2697 ft | 174 kts | 216° |
| 2026-05-01 11:39 | -35.89168 | 147.08490 | 2701 ft | 175 kts | 212° |
| 2026-05-01 11:39 | -35.90303 | 147.07942 | 2702 ft | 175 kts | 209° |
| 2026-05-01 11:40 | -35.91424 | 147.07370 | 2700 ft | 174 kts | 213° |
| 2026-05-01 11:40 | -35.92531 | 147.06768 | 2701 ft | 175 kts | 211° |
| 2026-05-01 11:40 | -35.93645 | 147.06185 | 2701 ft | 173 kts | 212° |
| 2026-05-01 11:40 | -35.94695 | 147.05495 | 2702 ft | 173 kts | 212° |
| 2026-05-01 11:41 | -35.95746 | 147.04817 | 2702 ft | 173 kts | 212° |
| 2026-05-01 11:41 | -35.96827 | 147.04113 | 2701 ft | 173 kts | 212° |
| 2026-05-01 11:41 | -35.97893 | 147.03424 | 2701 ft | 173 kts | 212° |
| 2026-05-01 11:41 | -35.98955 | 147.02738 | 2702 ft | 173 kts | 212° |
| 2026-05-01 11:42 | -36.00023 | 147.02047 | 2701 ft | 173 kts | 212° |
| 2026-05-01 11:42 | -36.01091 | 147.01357 | 2701 ft | 173 kts | 212° |
| 2026-05-01 11:42 | -36.02156 | 147.00668 | 2701 ft | 173 kts | 212° |
| 2026-05-01 11:42 | -36.03196 | 146.99995 | 2701 ft | 173 kts | 212° |
| 2026-05-01 11:43 | -36.04263 | 146.99303 | 2701 ft | 173 kts | 212° |
| 2026-05-01 11:43 | -36.05331 | 146.98610 | 2700 ft | 173 kts | 212° |
| 2026-05-01 11:43 | -36.06391 | 146.97916 | 2701 ft | 173 kts | 212° |
| 2026-05-01 11:44 | -36.08510 | 146.96509 | 2702 ft | 173 kts | 212° |
| 2026-05-01 11:44 | -36.09634 | 146.95961 | 2536 ft | 184 kts | 187° |
| 2026-05-01 11:44 | -36.10878 | 146.96161 | 2006 ft | 189 kts | 153° |
| 2026-05-01 11:44 | -36.11973 | 146.96994 | 2313 ft | 187 kts | 146° |
| 2026-05-01 11:45 | -36.13006 | 146.97908 | 2651 ft | 189 kts | 149° |
| 2026-05-01 11:45 | -36.14095 | 146.98806 | 2618 ft | 188 kts | 150° |
| 2026-05-01 11:45 | -36.15187 | 146.99706 | 2552 ft | 189 kts | 150° |
| 2026-05-01 11:45 | -36.16277 | 147.00607 | 2538 ft | 189 kts | 150° |
| 2026-05-01 11:46 | -36.17370 | 147.01507 | 2548 ft | 189 kts | 150° |
| 2026-05-01 11:46 | -36.18463 | 147.02406 | 2585 ft | 188 kts | 150° |
| 2026-05-01 11:46 | -36.19552 | 147.03302 | 2620 ft | 187 kts | 150° |
| 2026-05-01 11:46 | -36.20641 | 147.04198 | 2635 ft | 189 kts | 150° |
| 2026-05-01 11:47 | -36.21734 | 147.05099 | 2626 ft | 188 kts | 150° |
| 2026-05-01 11:47 | -36.22816 | 147.05987 | 2616 ft | 189 kts | 150° |
| 2026-05-01 11:47 | -36.23915 | 147.06885 | 2600 ft | 190 kts | 150° |
| 2026-05-01 11:47 | -36.25028 | 147.07749 | 2595 ft | 189 kts | 154° |
| 2026-05-01 11:48 | -36.26158 | 147.08553 | 2577 ft | 188 kts | 154° |
| 2026-05-01 11:48 | -36.27294 | 147.09352 | 2581 ft | 188 kts | 154° |
| 2026-05-01 11:48 | -36.28371 | 147.10277 | 2554 ft | 188 kts | 146° |
| 2026-05-01 11:48 | -36.29410 | 147.11273 | 2550 ft | 189 kts | 146° |
| 2026-05-01 11:49 | -36.30453 | 147.12273 | 2548 ft | 190 kts | 146° |
| 2026-05-01 11:49 | -36.31496 | 147.13259 | 2548 ft | 188 kts | 148° |
| 2026-05-01 11:49 | -36.32545 | 147.14238 | 2532 ft | 189 kts | 147° |
| 2026-05-01 11:49 | -36.33583 | 147.15194 | 2607 ft | 181 kts | 150° |
| 2026-05-01 11:50 | -36.34606 | 147.15990 | 2990 ft | 179 kts | 154° |
| 2026-05-01 11:50 | -36.35690 | 147.16798 | 2988 ft | 181 kts | 153° |
| 2026-05-01 11:50 | -36.36745 | 147.17640 | 3008 ft | 181 kts | 151° |
| 2026-05-01 11:50 | -36.37840 | 147.18406 | 2998 ft | 180 kts | 160° |
| 2026-05-01 11:51 | -36.38977 | 147.19027 | 3052 ft | 178 kts | 160° |
| 2026-05-01 11:51 | -36.40071 | 147.19711 | 3399 ft | 180 kts | 155° |
| 2026-05-01 11:51 | -36.41194 | 147.20497 | 3634 ft | 182 kts | 156° |
| 2026-05-01 11:51 | -36.42331 | 147.21198 | 3835 ft | 188 kts | 158° |
| 2026-05-01 11:52 | -36.43481 | 147.21916 | 3829 ft | 186 kts | 156° |
| 2026-05-01 11:52 | -36.44627 | 147.22663 | 3879 ft | 186 kts | 156° |
| 2026-05-01 11:52 | -36.45773 | 147.23409 | 3944 ft | 186 kts | 156° |
| 2026-05-01 11:52 | -36.46916 | 147.24152 | 3995 ft | 186 kts | 156° |
| 2026-05-01 11:53 | -36.48064 | 147.24897 | 4032 ft | 186 kts | 156° |
| 2026-05-01 11:53 | -36.49214 | 147.25641 | 4072 ft | 186 kts | 156° |
| 2026-05-01 11:53 | -36.50366 | 147.26385 | 4119 ft | 187 kts | 156° |
| 2026-05-01 11:53 | -36.51519 | 147.27127 | 4159 ft | 187 kts | 156° |
| 2026-05-01 11:54 | -36.52661 | 147.27852 | 4133 ft | 188 kts | 156° |
| 2026-05-01 11:54 | -36.53832 | 147.28594 | 4014 ft | 188 kts | 156° |
| 2026-05-01 11:54 | -36.54988 | 147.29341 | 4002 ft | 188 kts | 156° |
| 2026-05-01 11:54 | -36.56134 | 147.30088 | 4012 ft | 184 kts | 156° |
| 2026-05-01 11:55 | -36.57285 | 147.30830 | 3994 ft | 186 kts | 156° |
| 2026-05-01 11:55 | -36.58437 | 147.31575 | 4018 ft | 187 kts | 156° |
| 2026-05-01 11:55 | -36.59580 | 147.32324 | 3999 ft | 185 kts | 156° |
| 2026-05-01 11:55 | -36.60727 | 147.33070 | 3977 ft | 186 kts | 156° |
| 2026-05-01 11:56 | -36.61873 | 147.33810 | 3949 ft | 186 kts | 156° |
| 2026-05-01 11:56 | -36.63008 | 147.34544 | 3951 ft | 186 kts | 156° |
| 2026-05-01 11:56 | -36.64158 | 147.35289 | 3975 ft | 186 kts | 156° |
| 2026-05-01 11:56 | -36.65308 | 147.36027 | 3989 ft | 187 kts | 156° |
| 2026-05-01 11:57 | -36.66463 | 147.36767 | 4007 ft | 185 kts | 156° |
| 2026-05-01 11:57 | -36.67615 | 147.37493 | 3906 ft | 186 kts | 156° |
| 2026-05-01 11:57 | -36.67781 | 147.37601 | 4050 ft | 1 kts | 282° |
| 2026-05-01 11:57 | -36.67785 | 147.37602 | 4051 ft | 0 kts | 262° |
| 2026-05-01 11:58 | -36.67831 | 147.37070 | 4610 ft | 80 kts | 231° |
| 2026-05-01 11:58 | -36.67738 | 147.36519 | 5591 ft | 53 kts | 300° |
| 2026-05-01 11:58 | -36.68130 | 147.36669 | 6687 ft | 122 kts | 150° |
| 2026-05-01 11:59 | -36.68982 | 147.37422 | 6534 ft | 173 kts | 147° |
| 2026-05-01 11:59 | -36.69997 | 147.38365 | 6489 ft | 186 kts | 147° |
| 2026-05-01 11:59 | -36.71030 | 147.39315 | 6529 ft | 184 kts | 147° |
| 2026-05-01 12:00 | -36.73114 | 147.41146 | 6471 ft | 184 kts | 155° |
| 2026-05-01 12:00 | -36.74171 | 147.41970 | 6445 ft | 183 kts | 152° |
| 2026-05-01 12:00 | -36.76381 | 147.43515 | 6175 ft | 182 kts | 156° |
| 2026-05-01 12:01 | -36.77508 | 147.44240 | 6133 ft | 182 kts | 156° |
| 2026-05-01 12:01 | -36.78618 | 147.44979 | 6188 ft | 181 kts | 155° |
| 2026-05-01 12:01 | -36.79730 | 147.45730 | 6129 ft | 182 kts | 155° |
| 2026-05-01 12:01 | -36.80848 | 147.46479 | 6100 ft | 183 kts | 155° |
| 2026-05-01 12:02 | -36.81976 | 147.47220 | 5986 ft | 182 kts | 155° |
| 2026-05-01 12:02 | -36.83082 | 147.47951 | 5854 ft | 182 kts | 155° |
| 2026-05-01 12:02 | -36.84187 | 147.48681 | 5666 ft | 177 kts | 155° |
| 2026-05-01 12:02 | -36.85296 | 147.49430 | 5548 ft | 181 kts | 155° |
| 2026-05-01 12:03 | -36.86404 | 147.50171 | 5474 ft | 180 kts | 155° |
| 2026-05-01 12:03 | -36.87516 | 147.50914 | 5458 ft | 181 kts | 155° |
| 2026-05-01 12:03 | -36.88622 | 147.51661 | 5412 ft | 181 kts | 155° |
| 2026-05-01 12:03 | -36.89736 | 147.52404 | 5314 ft | 181 kts | 155° |
| 2026-05-01 12:04 | -36.90830 | 147.53151 | 5273 ft | 177 kts | 155° |
| 2026-05-01 12:04 | -36.91922 | 147.53894 | 5392 ft | 179 kts | 155° |
| 2026-05-01 12:04 | -36.93021 | 147.54638 | 5574 ft | 179 kts | 155° |
| 2026-05-01 12:04 | -36.94105 | 147.55370 | 5759 ft | 180 kts | 155° |
| 2026-05-01 12:05 | -36.95214 | 147.56119 | 5927 ft | 182 kts | 155° |
| 2026-05-01 12:05 | -36.97422 | 147.57605 | 6153 ft | 180 kts | 155° |
| 2026-05-01 12:05 | -36.98529 | 147.58348 | 6144 ft | 181 kts | 155° |
| 2026-05-01 12:06 | -36.99651 | 147.59089 | 6104 ft | 183 kts | 155° |
| 2026-05-01 12:06 | -37.00762 | 147.59828 | 6062 ft | 181 kts | 155° |
| 2026-05-01 12:06 | -37.01876 | 147.60574 | 6051 ft | 181 kts | 155° |
| 2026-05-01 12:06 | -37.02972 | 147.61306 | 6055 ft | 181 kts | 155° |
| 2026-05-01 12:07 | -37.04067 | 147.62081 | 6061 ft | 181 kts | 152° |
| 2026-05-01 12:07 | -37.05147 | 147.62891 | 6059 ft | 181 kts | 151° |
| 2026-05-01 12:07 | -37.06208 | 147.63730 | 6056 ft | 181 kts | 151° |
| 2026-05-01 12:07 | -37.07269 | 147.64584 | 6057 ft | 181 kts | 151° |
| 2026-05-01 12:08 | -37.08327 | 147.65435 | 6055 ft | 181 kts | 151° |
| 2026-05-01 12:08 | -37.09389 | 147.66288 | 6054 ft | 182 kts | 151° |
| 2026-05-01 12:08 | -37.10453 | 147.67141 | 6051 ft | 182 kts | 151° |
| 2026-05-01 12:08 | -37.11502 | 147.67985 | 6044 ft | 182 kts | 151° |
| 2026-05-01 12:09 | -37.12604 | 147.68744 | 6029 ft | 181 kts | 156° |
| 2026-05-01 12:09 | -37.13717 | 147.69477 | 6007 ft | 181 kts | 156° |
| 2026-05-01 12:09 | -37.14835 | 147.70214 | 5984 ft | 181 kts | 156° |
| 2026-05-01 12:09 | -37.15947 | 147.70944 | 5980 ft | 181 kts | 156° |
| 2026-05-01 12:10 | -37.17064 | 147.71675 | 6001 ft | 180 kts | 156° |
| 2026-05-01 12:10 | -37.19280 | 147.73137 | 6059 ft | 180 kts | 156° |
| 2026-05-01 12:10 | -37.20388 | 147.73869 | 6100 ft | 180 kts | 156° |
| 2026-05-01 12:11 | -37.22604 | 147.75331 | 6160 ft | 180 kts | 156° |
| 2026-05-01 12:11 | -37.23717 | 147.76063 | 6171 ft | 181 kts | 156° |
| 2026-05-01 12:11 | -37.24815 | 147.76787 | 6171 ft | 181 kts | 156° |
| 2026-05-01 12:12 | -37.25996 | 147.77212 | 6111 ft | 176 kts | 189° |
| 2026-05-01 12:12 | -37.27223 | 147.77216 | 6088 ft | 174 kts | 188° |
| 2026-05-01 12:12 | -37.28426 | 147.77004 | 6081 ft | 174 kts | 194° |
| 2026-05-01 12:12 | -37.29619 | 147.76753 | 6109 ft | 173 kts | 194° |
| 2026-05-01 12:13 | -37.30805 | 147.76518 | 6137 ft | 173 kts | 193° |
| 2026-05-01 12:13 | -37.32002 | 147.76289 | 6160 ft | 175 kts | 194° |
| 2026-05-01 12:13 | -37.33201 | 147.76054 | 6187 ft | 174 kts | 191° |
| 2026-05-01 12:13 | -37.34382 | 147.75857 | 6219 ft | 173 kts | 190° |
| 2026-05-01 12:14 | -37.35581 | 147.75683 | 6229 ft | 173 kts | 190° |
| 2026-05-01 12:14 | -37.36782 | 147.75517 | 6189 ft | 174 kts | 189° |
| 2026-05-01 12:14 | -37.38006 | 147.75371 | 6207 ft | 175 kts | 189° |
| 2026-05-01 12:14 | -37.39212 | 147.75220 | 6198 ft | 175 kts | 189° |
| 2026-05-01 12:15 | -37.40428 | 147.75081 | 6206 ft | 175 kts | 189° |
| 2026-05-01 12:15 | -37.41644 | 147.74949 | 6238 ft | 175 kts | 189° |
| 2026-05-01 12:15 | -37.42857 | 147.74818 | 6264 ft | 175 kts | 189° |
| 2026-05-01 12:15 | -37.44069 | 147.74688 | 6291 ft | 175 kts | 189° |
| 2026-05-01 12:16 | -37.45279 | 147.74556 | 6310 ft | 174 kts | 189° |
| 2026-05-01 12:16 | -37.46473 | 147.74428 | 6329 ft | 175 kts | 189° |
| 2026-05-01 12:16 | -37.47688 | 147.74303 | 6320 ft | 175 kts | 189° |
| 2026-05-01 12:16 | -37.48897 | 147.74175 | 6296 ft | 175 kts | 189° |
| 2026-05-01 12:17 | -37.50111 | 147.74045 | 6318 ft | 175 kts | 189° |
| 2026-05-01 12:17 | -37.51322 | 147.73916 | 6341 ft | 176 kts | 189° |
| 2026-05-01 12:17 | -37.52537 | 147.73789 | 6351 ft | 175 kts | 189° |
| 2026-05-01 12:17 | -37.53753 | 147.73667 | 6349 ft | 176 kts | 189° |
| 2026-05-01 12:18 | -37.54972 | 147.73550 | 6364 ft | 175 kts | 189° |
| 2026-05-01 12:18 | -37.56171 | 147.73436 | 6383 ft | 175 kts | 189° |
| 2026-05-01 12:18 | -37.57386 | 147.73319 | 6403 ft | 176 kts | 189° |
| 2026-05-01 12:18 | -37.58602 | 147.73205 | 6408 ft | 175 kts | 189° |
| 2026-05-01 12:19 | -37.59811 | 147.73089 | 6433 ft | 175 kts | 189° |
| 2026-05-01 12:19 | -37.61023 | 147.72973 | 6456 ft | 175 kts | 189° |
| 2026-05-01 12:19 | -37.62232 | 147.72856 | 6480 ft | 175 kts | 189° |
| 2026-05-01 12:19 | -37.63452 | 147.72737 | 6502 ft | 176 kts | 189° |
| 2026-05-01 12:20 | -37.64667 | 147.72609 | 6521 ft | 175 kts | 189° |
| 2026-05-01 12:20 | -37.65873 | 147.72474 | 6549 ft | 175 kts | 189° |
| 2026-05-01 12:20 | -37.67084 | 147.72339 | 6576 ft | 175 kts | 190° |
| 2026-05-01 12:20 | -37.68282 | 147.72231 | 6600 ft | 176 kts | 189° |
| 2026-05-01 12:21 | -37.69503 | 147.72161 | 6620 ft | 176 kts | 187° |
| 2026-05-01 12:21 | -37.70723 | 147.72131 | 6636 ft | 176 kts | 186° |
| 2026-05-01 12:21 | -37.71950 | 147.72140 | 6645 ft | 176 kts | 184° |
| 2026-05-01 12:21 | -37.73178 | 147.72188 | 6654 ft | 176 kts | 183° |
| 2026-05-01 12:22 | -37.74403 | 147.72254 | 6669 ft | 176 kts | 182° |
| 2026-05-01 12:22 | -37.75627 | 147.72316 | 6687 ft | 176 kts | 182° |
| 2026-05-01 12:22 | -37.76847 | 147.72371 | 6708 ft | 177 kts | 182° |
| 2026-05-01 12:22 | -37.78056 | 147.72426 | 6718 ft | 176 kts | 182° |
| 2026-05-01 12:23 | -37.79282 | 147.72481 | 6739 ft | 176 kts | 182° |
| 2026-05-01 12:23 | -37.80509 | 147.72536 | 6753 ft | 176 kts | 182° |
| 2026-05-01 12:23 | -37.81734 | 147.72586 | 6762 ft | 176 kts | 182° |
| 2026-05-01 12:23 | -37.82960 | 147.72636 | 6774 ft | 176 kts | 182° |
| 2026-05-01 12:24 | -37.84186 | 147.72685 | 6790 ft | 176 kts | 182° |
| 2026-05-01 12:24 | -37.85411 | 147.72727 | 6803 ft | 175 kts | 184° |
| 2026-05-01 12:24 | -37.86519 | 147.72185 | 6624 ft | 173 kts | 218° |
| 2026-05-01 12:24 | -37.87302 | 147.71051 | 6470 ft | 169 kts | 240° |
| 2026-05-01 12:25 | -37.87917 | 147.69833 | 6470 ft | 168 kts | 240° |
| 2026-05-01 12:25 | -37.89190 | 147.67354 | 6457 ft | 169 kts | 240° |
| 2026-05-01 12:25 | -37.89796 | 147.66082 | 6375 ft | 168 kts | 243° |
| 2026-05-01 12:26 | -37.90370 | 147.64791 | 6232 ft | 168 kts | 243° |
| 2026-05-01 12:26 | -37.91514 | 147.62217 | 5962 ft | 167 kts | 243° |
| 2026-05-01 12:26 | -37.92083 | 147.60939 | 5852 ft | 168 kts | 243° |
| 2026-05-01 12:27 | -37.92653 | 147.59659 | 5743 ft | 167 kts | 243° |
| 2026-05-01 12:27 | -37.93784 | 147.57120 | 5511 ft | 167 kts | 243° |
| 2026-05-01 12:28 | -37.94919 | 147.54572 | 5332 ft | 166 kts | 243° |
| 2026-05-01 12:28 | -37.95485 | 147.53295 | 5181 ft | 165 kts | 243° |
| 2026-05-01 12:28 | -37.96593 | 147.50742 | 4819 ft | 165 kts | 244° |
| 2026-05-01 12:29 | -37.97134 | 147.49462 | 4680 ft | 164 kts | 244° |
| 2026-05-01 12:29 | -37.97674 | 147.48183 | 4566 ft | 164 kts | 244° |
| 2026-05-01 12:29 | -37.98745 | 147.45648 | 4359 ft | 164 kts | 244° |
| 2026-05-01 12:30 | -37.99821 | 147.43110 | 4216 ft | 164 kts | 244° |
| 2026-05-01 12:30 | -38.00357 | 147.41844 | 4148 ft | 163 kts | 244° |
| 2026-05-01 12:30 | -38.00894 | 147.40573 | 4079 ft | 164 kts | 244° |
| 2026-05-01 12:31 | -38.01431 | 147.39301 | 3915 ft | 163 kts | 244° |
| 2026-05-01 12:31 | -38.01966 | 147.38036 | 3738 ft | 163 kts | 244° |
| 2026-05-01 12:31 | -38.02500 | 147.36773 | 3572 ft | 162 kts | 244° |
| 2026-05-01 12:31 | -38.03026 | 147.35529 | 3428 ft | 163 kts | 244° |
| 2026-05-01 12:32 | -38.03556 | 147.34274 | 3295 ft | 162 kts | 244° |
| 2026-05-01 12:32 | -38.04535 | 147.31711 | 3056 ft | 161 kts | 248° |
| 2026-05-01 12:32 | -38.05007 | 147.30425 | 2967 ft | 161 kts | 248° |
| 2026-05-01 12:33 | -38.05480 | 147.29138 | 2891 ft | 161 kts | 248° |
| 2026-05-01 12:33 | -38.05950 | 147.27854 | 2822 ft | 162 kts | 248° |
| 2026-05-01 12:33 | -38.06423 | 147.26563 | 2584 ft | 166 kts | 248° |
| 2026-05-01 12:33 | -38.06914 | 147.25220 | 2231 ft | 169 kts | 248° |
| 2026-05-01 12:34 | -38.07412 | 147.23858 | 1870 ft | 170 kts | 248° |
| 2026-05-01 12:34 | -38.07908 | 147.22500 | 1543 ft | 170 kts | 248° |
| 2026-05-01 12:34 | -38.08413 | 147.21084 | 1237 ft | 177 kts | 249° |
| 2026-05-01 12:34 | -38.08732 | 147.19640 | 1121 ft | 162 kts | 259° |
| 2026-05-01 12:35 | -38.08785 | 147.18259 | 1154 ft | 156 kts | 273° |
| 2026-05-01 12:35 | -38.08646 | 147.16866 | 1119 ft | 160 kts | 278° |
| 2026-05-01 12:35 | -38.08484 | 147.15501 | 1419 ft | 151 kts | 277° |
| 2026-05-01 12:35 | -38.08309 | 147.14226 | 956 ft | 150 kts | 280° |
| 2026-05-01 12:36 | -38.08199 | 147.13063 | 622 ft | 118 kts | 264° |
| 2026-05-01 12:36 | -38.08739 | 147.12405 | 459 ft | 113 kts | 197° |
| 2026-05-01 12:36 | -38.09410 | 147.12349 | 253 ft | 79 kts | 142° |
| 2026-05-01 12:36 | -38.09554 | 147.12754 | 186 ft | 14 kts | 53° |
| 2026-05-01 12:37 | -38.09569 | 147.12857 | 62 ft | 3 kts | 104° |
| 2026-05-01 12:37 | -38.09571 | 147.12870 | 24 ft | 1 kts | 117° |
| 2026-05-01 12:37 | -38.09599 | 147.12848 | 24 ft | 9 kts | 209° |
| 2026-05-01 12:37 | -38.09667 | 147.12834 | 23 ft | 11 kts | 192° |
| 2026-05-01 12:38 | -38.09734 | 147.12813 | 23 ft | 8 kts | 188° |
| 2026-05-01 12:38 | -38.09787 | 147.12806 | 24 ft | 8 kts | 186° |
| 2026-05-01 12:38 | -38.09799 | 147.12829 | 24 ft | 0 kts | 1° |